sensor_id;sensor_type;location;lat;lon;timestamp;pressure;altitude;pressure_sealevel;temperature;humidity
6615;BME280;3343;42.896;23.912;2022-10-16T00:00:39;97229.31;;;14.07;67.68
6615;BME280;3343;42.896;23.912;2022-10-16T00:03:07;97228.63;;;13.98;69.02
6615;BME280;3343;42.896;23.912;2022-10-16T00:05:38;97236.88;;;14.73;66.01
6615;BME280;3343;42.896;23.912;2022-10-16T00:08:05;97241.25;;;14.87;64.00
6615;BME280;3343;42.896;23.912;2022-10-16T00:10:34;97242.53;;;14.97;63.44
6615;BME280;3343;42.896;23.912;2022-10-16T00:13:01;97242.16;;;15.07;62.43
6615;BME280;3343;42.896;23.912;2022-10-16T00:15:28;97250.97;;;15.21;61.46
6615;BME280;3343;42.896;23.912;2022-10-16T00:17:55;97247.81;;;14.63;63.54
6615;BME280;3343;42.896;23.912;2022-10-16T00:20:21;97254.38;;;14.67;64.06
6615;BME280;3343;42.896;23.912;2022-10-16T00:22:48;97253.94;;;14.98;63.39
6615;BME280;3343;42.896;23.912;2022-10-16T00:25:15;97250.94;;;15.14;62.78
6615;BME280;3343;42.896;23.912;2022-10-16T00:27:44;97260.56;;;15.28;62.21
6615;BME280;3343;42.896;23.912;2022-10-16T00:30:11;97263.84;;;15.30;62.23
6615;BME280;3343;42.896;23.912;2022-10-16T00:32:37;97269.56;;;15.27;61.49
6615;BME280;3343;42.896;23.912;2022-10-16T00:35:05;97265.72;;;15.50;60.34
6615;BME280;3343;42.896;23.912;2022-10-16T00:37:32;97262.81;;;15.25;61.09
6615;BME280;3343;42.896;23.912;2022-10-16T00:39:59;97253.06;;;15.39;60.94
6615;BME280;3343;42.896;23.912;2022-10-16T00:42:26;97248.34;;;15.27;60.12
6615;BME280;3343;42.896;23.912;2022-10-16T00:44:56;97251.00;;;15.34;60.53
6615;BME280;3343;42.896;23.912;2022-10-16T00:47:27;97252.69;;;14.94;62.26
6615;BME280;3343;42.896;23.912;2022-10-16T00:49:59;97261.00;;;14.84;63.16
6615;BME280;3343;42.896;23.912;2022-10-16T00:52:27;97261.38;;;14.19;65.33
6615;BME280;3343;42.896;23.912;2022-10-16T00:54:54;97266.19;;;13.87;67.86
6615;BME280;3343;42.896;23.912;2022-10-16T00:57:22;97267.44;;;13.70;69.14
6615;BME280;3343;42.896;23.912;2022-10-16T00:59:50;97259.38;;;13.78;69.01
6615;BME280;3343;42.896;23.912;2022-10-16T01:02:19;97262.34;;;13.90;69.87
6615;BME280;3343;42.896;23.912;2022-10-16T01:04:48;97262.22;;;13.98;69.48
6615;BME280;3343;42.896;23.912;2022-10-16T01:07:23;97263.72;;;14.07;70.04
6615;BME280;3343;42.896;23.912;2022-10-16T01:10:02;97265.59;;;14.69;66.60
6615;BME280;3343;42.896;23.912;2022-10-16T01:12:39;97259.25;;;14.63;65.26
6615;BME280;3343;42.896;23.912;2022-10-16T01:15:11;97258.13;;;14.79;64.75
6615;BME280;3343;42.896;23.912;2022-10-16T01:17:45;97261.19;;;14.76;64.23
6615;BME280;3343;42.896;23.912;2022-10-16T01:20:21;97260.16;;;14.77;63.97
6615;BME280;3343;42.896;23.912;2022-10-16T01:23:02;97259.97;;;14.79;63.15
6615;BME280;3343;42.896;23.912;2022-10-16T01:25:39;97260.69;;;14.66;62.63
6615;BME280;3343;42.896;23.912;2022-10-16T01:28:18;97259.84;;;14.93;61.90
6615;BME280;3343;42.896;23.912;2022-10-16T01:30:50;97267.94;;;14.85;61.75
6615;BME280;3343;42.896;23.912;2022-10-16T01:33:23;97264.97;;;14.67;61.35
6615;BME280;3343;42.896;23.912;2022-10-16T01:35:53;97266.91;;;14.52;61.76
6615;BME280;3343;42.896;23.912;2022-10-16T01:38:25;97273.22;;;14.51;61.88
6615;BME280;3343;42.896;23.912;2022-10-16T01:40:56;97272.06;;;14.32;62.44
6615;BME280;3343;42.896;23.912;2022-10-16T01:43:30;97272.19;;;13.96;63.88
6615;BME280;3343;42.896;23.912;2022-10-16T01:45:59;97269.41;;;14.04;64.32
6615;BME280;3343;42.896;23.912;2022-10-16T01:48:27;97264.91;;;14.05;63.76
6615;BME280;3343;42.896;23.912;2022-10-16T01:50:59;97266.31;;;14.28;62.90
6615;BME280;3343;42.896;23.912;2022-10-16T01:53:27;97276.91;;;14.00;63.50
6615;BME280;3343;42.896;23.912;2022-10-16T01:55:55;97272.09;;;14.11;63.29
6615;BME280;3343;42.896;23.912;2022-10-16T01:58:26;97277.44;;;14.17;63.39
6615;BME280;3343;42.896;23.912;2022-10-16T02:00:56;97276.91;;;14.28;63.08
6615;BME280;3343;42.896;23.912;2022-10-16T02:03:23;97277.22;;;13.91;63.04
6615;BME280;3343;42.896;23.912;2022-10-16T02:05:52;97279.66;;;14.14;62.60
6615;BME280;3343;42.896;23.912;2022-10-16T02:08:21;97285.97;;;14.13;62.03
6615;BME280;3343;42.896;23.912;2022-10-16T02:10:49;97287.81;;;13.91;62.53
6615;BME280;3343;42.896;23.912;2022-10-16T02:13:18;97275.50;;;14.05;62.47
6615;BME280;3343;42.896;23.912;2022-10-16T02:15:49;97291.63;;;13.67;63.65
6615;BME280;3343;42.896;23.912;2022-10-16T02:18:16;97292.06;;;13.70;63.05
6615;BME280;3343;42.896;23.912;2022-10-16T02:20:50;97296.63;;;13.98;62.15
6615;BME280;3343;42.896;23.912;2022-10-16T02:23:24;97303.84;;;14.11;61.27
6615;BME280;3343;42.896;23.912;2022-10-16T02:25:56;97300.41;;;14.10;61.68
6615;BME280;3343;42.896;23.912;2022-10-16T02:28:28;97301.47;;;14.16;61.27
6615;BME280;3343;42.896;23.912;2022-10-16T02:31:02;97302.03;;;14.11;61.85
6615;BME280;3343;42.896;23.912;2022-10-16T02:33:31;97301.88;;;13.77;64.62
6615;BME280;3343;42.896;23.912;2022-10-16T02:35:59;97298.66;;;13.60;64.75
6615;BME280;3343;42.896;23.912;2022-10-16T02:38:26;97292.72;;;13.36;66.19
6615;BME280;3343;42.896;23.912;2022-10-16T02:40:56;97292.47;;;12.87;70.73
6615;BME280;3343;42.896;23.912;2022-10-16T02:43:24;97293.13;;;13.55;66.86
6615;BME280;3343;42.896;23.912;2022-10-16T02:45:51;97294.81;;;13.41;65.65
6615;BME280;3343;42.896;23.912;2022-10-16T02:48:20;97297.41;;;13.56;65.74
6615;BME280;3343;42.896;23.912;2022-10-16T02:50:47;97301.38;;;13.45;65.49
6615;BME280;3343;42.896;23.912;2022-10-16T02:53:13;97301.81;;;13.49;64.35
6615;BME280;3343;42.896;23.912;2022-10-16T02:55:40;97304.03;;;13.30;65.53
6615;BME280;3343;42.896;23.912;2022-10-16T02:58:07;97305.97;;;13.22;65.50
6615;BME280;3343;42.896;23.912;2022-10-16T03:00:34;97305.47;;;13.48;64.41
6615;BME280;3343;42.896;23.912;2022-10-16T03:03:01;97306.94;;;13.71;62.99
6615;BME280;3343;42.896;23.912;2022-10-16T03:05:29;97302.34;;;13.80;63.08
6615;BME280;3343;42.896;23.912;2022-10-16T03:07:56;97303.84;;;14.11;60.77
6615;BME280;3343;42.896;23.912;2022-10-16T03:10:25;97295.13;;;13.89;61.11
6615;BME280;3343;42.896;23.912;2022-10-16T03:12:52;97298.63;;;13.75;61.54
6615;BME280;3343;42.896;23.912;2022-10-16T03:15:19;97307.63;;;13.80;61.60
6615;BME280;3343;42.896;23.912;2022-10-16T03:17:46;97302.34;;;13.80;60.71
6615;BME280;3343;42.896;23.912;2022-10-16T03:20:13;97301.94;;;13.83;60.49
6615;BME280;3343;42.896;23.912;2022-10-16T03:22:41;97308.03;;;13.98;60.51
6615;BME280;3343;42.896;23.912;2022-10-16T03:25:08;97308.53;;;13.87;61.09
6615;BME280;3343;42.896;23.912;2022-10-16T03:27:35;97308.91;;;14.06;59.54
6615;BME280;3343;42.896;23.912;2022-10-16T03:30:02;97319.50;;;14.06;59.34
6615;BME280;3343;42.896;23.912;2022-10-16T03:32:29;97312.44;;;14.13;59.49
6615;BME280;3343;42.896;23.912;2022-10-16T03:34:56;97321.00;;;14.15;59.57
6615;BME280;3343;42.896;23.912;2022-10-16T03:37:23;97322.75;;;14.08;59.55
6615;BME280;3343;42.896;23.912;2022-10-16T03:39:51;97322.25;;;14.19;59.83
6615;BME280;3343;42.896;23.912;2022-10-16T03:42:19;97327.19;;;14.00;60.23
6615;BME280;3343;42.896;23.912;2022-10-16T03:44:46;97324.44;;;13.73;59.38
6615;BME280;3343;42.896;23.912;2022-10-16T03:47:13;97331.16;;;13.54;60.61
6615;BME280;3343;42.896;23.912;2022-10-16T03:49:40;97332.97;;;13.53;59.53
6615;BME280;3343;42.896;23.912;2022-10-16T03:52:07;97335.31;;;13.63;59.42
6615;BME280;3343;42.896;23.912;2022-10-16T03:54:33;97334.72;;;13.46;59.85
6615;BME280;3343;42.896;23.912;2022-10-16T03:57:02;97332.97;;;13.89;59.91
6615;BME280;3343;42.896;23.912;2022-10-16T03:59:29;97332.78;;;13.55;60.20
6615;BME280;3343;42.896;23.912;2022-10-16T04:01:55;97334.94;;;13.66;59.49
6615;BME280;3343;42.896;23.912;2022-10-16T04:04:22;97325.19;;;13.66;59.27
6615;BME280;3343;42.896;23.912;2022-10-16T04:06:50;97326.13;;;13.59;58.95
6615;BME280;3343;42.896;23.912;2022-10-16T04:09:17;97326.91;;;13.74;58.28
6615;BME280;3343;42.896;23.912;2022-10-16T04:11:44;97327.78;;;13.81;58.07
6615;BME280;3343;42.896;23.912;2022-10-16T04:14:12;97315.44;;;13.67;59.23
6615;BME280;3343;42.896;23.912;2022-10-16T04:16:39;97320.56;;;13.54;59.75
6615;BME280;3343;42.896;23.912;2022-10-16T04:19:06;97334.09;;;13.44;59.03
6615;BME280;3343;42.896;23.912;2022-10-16T04:21:32;97335.88;;;13.22;59.86
6615;BME280;3343;42.896;23.912;2022-10-16T04:24:00;97323.63;;;12.62;64.17
6615;BME280;3343;42.896;23.912;2022-10-16T04:26:27;97335.44;;;12.52;64.66
6615;BME280;3343;42.896;23.912;2022-10-16T04:28:54;97337.91;;;12.68;64.90
6615;BME280;3343;42.896;23.912;2022-10-16T04:31:22;97341.31;;;12.91;63.84
6615;BME280;3343;42.896;23.912;2022-10-16T04:33:49;97341.38;;;12.98;63.36
6615;BME280;3343;42.896;23.912;2022-10-16T04:36:16;97349.03;;;12.93;62.71
6615;BME280;3343;42.896;23.912;2022-10-16T04:38:43;97359.97;;;12.90;62.89
6615;BME280;3343;42.896;23.912;2022-10-16T04:41:10;97354.91;;;13.03;62.23
6615;BME280;3343;42.896;23.912;2022-10-16T04:43:37;97356.78;;;12.94;62.90
6615;BME280;3343;42.896;23.912;2022-10-16T04:46:04;97338.19;;;12.88;61.78
6615;BME280;3343;42.896;23.912;2022-10-16T04:48:32;97355.94;;;13.17;61.75
6615;BME280;3343;42.896;23.912;2022-10-16T04:50:59;97365.94;;;13.06;61.43
6615;BME280;3343;42.896;23.912;2022-10-16T04:53:26;97360.78;;;12.90;61.71
6615;BME280;3343;42.896;23.912;2022-10-16T04:55:53;97365.06;;;12.76;61.83
6615;BME280;3343;42.896;23.912;2022-10-16T04:58:21;97358.25;;;12.97;61.49
6615;BME280;3343;42.896;23.912;2022-10-16T05:00:48;97365.34;;;12.96;61.50
6615;BME280;3343;42.896;23.912;2022-10-16T05:03:15;97363.84;;;13.02;61.32
6615;BME280;3343;42.896;23.912;2022-10-16T05:05:44;97367.59;;;13.22;60.55
6615;BME280;3343;42.896;23.912;2022-10-16T05:08:11;97364.84;;;13.30;61.09
6615;BME280;3343;42.896;23.912;2022-10-16T05:10:40;97371.16;;;13.65;59.66
6615;BME280;3343;42.896;23.912;2022-10-16T05:13:07;97371.38;;;13.85;57.79
6615;BME280;3343;42.896;23.912;2022-10-16T05:15:34;97377.72;;;14.48;57.01
6615;BME280;3343;42.896;23.912;2022-10-16T05:18:02;97378.75;;;15.03;53.57
6615;BME280;3343;42.896;23.912;2022-10-16T05:20:29;97375.84;;;15.33;52.80
6615;BME280;3343;42.896;23.912;2022-10-16T05:22:57;97378.19;;;16.03;50.97
6615;BME280;3343;42.896;23.912;2022-10-16T05:25:24;97383.94;;;16.27;49.87
6615;BME280;3343;42.896;23.912;2022-10-16T05:27:51;97398.13;;;16.73;48.80
6615;BME280;3343;42.896;23.912;2022-10-16T05:30:18;97393.00;;;16.85;48.44
6615;BME280;3343;42.896;23.912;2022-10-16T05:32:48;97394.13;;;17.48;46.38
6615;BME280;3343;42.896;23.912;2022-10-16T05:35:17;97402.34;;;17.40;47.00
6615;BME280;3343;42.896;23.912;2022-10-16T05:37:44;97404.72;;;17.62;46.89
6615;BME280;3343;42.896;23.912;2022-10-16T05:40:12;97396.72;;;18.13;46.14
6615;BME280;3343;42.896;23.912;2022-10-16T05:42:39;97403.03;;;18.25;44.92
6615;BME280;3343;42.896;23.912;2022-10-16T05:45:09;97401.16;;;18.26;45.87
6615;BME280;3343;42.896;23.912;2022-10-16T05:47:36;97405.50;;;18.13;45.40
6615;BME280;3343;42.896;23.912;2022-10-16T05:50:03;97407.94;;;18.53;45.34
6615;BME280;3343;42.896;23.912;2022-10-16T05:52:30;97404.81;;;18.88;44.81
6615;BME280;3343;42.896;23.912;2022-10-16T05:54:57;97406.97;;;19.22;44.47
6615;BME280;3343;42.896;23.912;2022-10-16T05:57:26;97411.97;;;19.73;44.03
6615;BME280;3343;42.896;23.912;2022-10-16T05:59:52;97411.25;;;18.49;44.59
6615;BME280;3343;42.896;23.912;2022-10-16T06:02:19;97412.03;;;16.75;49.06
6615;BME280;3343;42.896;23.912;2022-10-16T06:04:46;97416.91;;;15.71;53.72
6615;BME280;3343;42.896;23.912;2022-10-16T06:07:13;97409.38;;;15.47;56.21
6615;BME280;3343;42.896;23.912;2022-10-16T06:09:40;97414.97;;;16.13;55.22
6615;BME280;3343;42.896;23.912;2022-10-16T06:12:07;97419.91;;;16.36;53.69
6615;BME280;3343;42.896;23.912;2022-10-16T06:14:35;97421.22;;;17.06;53.34
6615;BME280;3343;42.896;23.912;2022-10-16T06:17:02;97425.06;;;17.36;52.13
6615;BME280;3343;42.896;23.912;2022-10-16T06:19:28;97418.63;;;18.15;50.49
6615;BME280;3343;42.896;23.912;2022-10-16T06:21:57;97425.78;;;18.53;48.55
6615;BME280;3343;42.896;23.912;2022-10-16T06:24:24;97434.22;;;19.06;47.62
6615;BME280;3343;42.896;23.912;2022-10-16T06:26:51;97428.53;;;19.64;46.91
6615;BME280;3343;42.896;23.912;2022-10-16T06:29:18;97440.41;;;20.34;44.44
6615;BME280;3343;42.896;23.912;2022-10-16T06:31:46;97443.16;;;20.99;43.23
6615;BME280;3343;42.896;23.912;2022-10-16T06:34:13;97439.56;;;21.41;42.14
6615;BME280;3343;42.896;23.912;2022-10-16T06:36:41;97446.69;;;22.10;40.64
6615;BME280;3343;42.896;23.912;2022-10-16T06:39:08;97450.91;;;22.35;39.94
6615;BME280;3343;42.896;23.912;2022-10-16T06:41:35;97450.91;;;22.63;39.49
6615;BME280;3343;42.896;23.912;2022-10-16T06:44:06;97451.53;;;22.99;39.00
6615;BME280;3343;42.896;23.912;2022-10-16T06:46:33;97456.44;;;22.56;39.51
6615;BME280;3343;42.896;23.912;2022-10-16T06:49:02;97464.66;;;22.67;40.56
6615;BME280;3343;42.896;23.912;2022-10-16T06:51:29;97460.84;;;22.79;40.44
6615;BME280;3343;42.896;23.912;2022-10-16T06:53:57;97469.75;;;22.80;40.42
6615;BME280;3343;42.896;23.912;2022-10-16T06:56:26;97455.34;;;23.19;39.52
6615;BME280;3343;42.896;23.912;2022-10-16T06:58:53;97472.44;;;23.30;39.89
6615;BME280;3343;42.896;23.912;2022-10-16T07:01:23;97481.38;;;23.69;39.78
6615;BME280;3343;42.896;23.912;2022-10-16T07:03:50;97485.06;;;23.30;40.54
6615;BME280;3343;42.896;23.912;2022-10-16T07:06:21;97486.25;;;23.39;40.29
6615;BME280;3343;42.896;23.912;2022-10-16T07:08:48;97478.78;;;23.24;41.07
6615;BME280;3343;42.896;23.912;2022-10-16T07:11:17;97479.56;;;22.46;43.20
6615;BME280;3343;42.896;23.912;2022-10-16T07:13:45;97490.38;;;22.51;43.07
6615;BME280;3343;42.896;23.912;2022-10-16T07:16:14;97485.47;;;22.88;42.79
6615;BME280;3343;42.896;23.912;2022-10-16T07:18:42;97490.50;;;22.84;42.17
6615;BME280;3343;42.896;23.912;2022-10-16T07:21:12;97490.50;;;22.84;43.13
6615;BME280;3343;42.896;23.912;2022-10-16T07:23:41;97475.13;;;22.97;41.96
6615;BME280;3343;42.896;23.912;2022-10-16T07:26:08;97491.16;;;22.92;41.98
6615;BME280;3343;42.896;23.912;2022-10-16T07:28:36;97493.28;;;23.23;41.71
6615;BME280;3343;42.896;23.912;2022-10-16T07:31:04;97499.78;;;23.27;40.91
6615;BME280;3343;42.896;23.912;2022-10-16T07:33:33;97489.06;;;23.44;41.93
6615;BME280;3343;42.896;23.912;2022-10-16T07:36:01;97494.50;;;23.66;40.92
6615;BME280;3343;42.896;23.912;2022-10-16T07:38:28;97497.38;;;23.59;40.93
6615;BME280;3343;42.896;23.912;2022-10-16T07:41:00;97492.88;;;24.47;38.81
6615;BME280;3343;42.896;23.912;2022-10-16T07:43:28;97489.78;;;24.33;37.66
6615;BME280;3343;42.896;23.912;2022-10-16T07:45:55;97489.34;;;24.25;38.68
6615;BME280;3343;42.896;23.912;2022-10-16T07:48:23;97486.19;;;24.50;38.70
6615;BME280;3343;42.896;23.912;2022-10-16T07:50:50;97487.78;;;24.07;40.41
6615;BME280;3343;42.896;23.912;2022-10-16T07:53:17;97484.16;;;23.96;39.76
6615;BME280;3343;42.896;23.912;2022-10-16T07:55:44;97492.97;;;24.13;39.37
6615;BME280;3343;42.896;23.912;2022-10-16T07:58:12;97485.22;;;24.17;40.54
6615;BME280;3343;42.896;23.912;2022-10-16T08:00:39;97483.38;;;23.57;40.71
6615;BME280;3343;42.896;23.912;2022-10-16T08:03:07;97493.44;;;23.67;41.83
6615;BME280;3343;42.896;23.912;2022-10-16T08:05:34;97492.72;;;23.93;40.91
6615;BME280;3343;42.896;23.912;2022-10-16T08:08:01;97479.25;;;24.32;39.95
6615;BME280;3343;42.896;23.912;2022-10-16T08:10:29;97501.97;;;24.95;38.86
6615;BME280;3343;42.896;23.912;2022-10-16T08:12:57;97494.81;;;24.78;38.91
6615;BME280;3343;42.896;23.912;2022-10-16T08:15:25;97494.59;;;25.12;38.74
6615;BME280;3343;42.896;23.912;2022-10-16T08:17:56;97498.72;;;25.20;38.38
6615;BME280;3343;42.896;23.912;2022-10-16T08:20:24;97495.31;;;24.75;39.43
6615;BME280;3343;42.896;23.912;2022-10-16T08:22:51;97487.50;;;25.01;38.87
6615;BME280;3343;42.896;23.912;2022-10-16T08:25:18;97486.88;;;24.67;39.97
6615;BME280;3343;42.896;23.912;2022-10-16T08:27:45;97496.63;;;24.46;39.85
6615;BME280;3343;42.896;23.912;2022-10-16T08:30:12;97496.03;;;24.66;39.21
6615;BME280;3343;42.896;23.912;2022-10-16T08:32:41;97489.00;;;24.92;39.56
6615;BME280;3343;42.896;23.912;2022-10-16T08:35:08;97496.22;;;24.86;40.11
6615;BME280;3343;42.896;23.912;2022-10-16T08:37:35;97497.28;;;25.12;39.80
6615;BME280;3343;42.896;23.912;2022-10-16T08:40:04;97500.34;;;25.58;39.03
6615;BME280;3343;42.896;23.912;2022-10-16T08:42:44;97499.94;;;25.76;38.04
6615;BME280;3343;42.896;23.912;2022-10-16T08:45:32;97502.78;;;25.59;38.13
6615;BME280;3343;42.896;23.912;2022-10-16T08:48:11;97505.16;;;25.51;38.65
6615;BME280;3343;42.896;23.912;2022-10-16T08:50:41;97508.22;;;25.27;38.37
6615;BME280;3343;42.896;23.912;2022-10-16T08:53:15;97505.34;;;25.76;38.16
6615;BME280;3343;42.896;23.912;2022-10-16T08:55:45;97504.47;;;26.13;37.54
6615;BME280;3343;42.896;23.912;2022-10-16T08:58:15;97505.81;;;26.15;36.67
6615;BME280;3343;42.896;23.912;2022-10-16T09:00:44;97507.22;;;26.23;36.26
6615;BME280;3343;42.896;23.912;2022-10-16T09:03:21;97511.81;;;26.27;35.62
6615;BME280;3343;42.896;23.912;2022-10-16T09:06:10;97496.22;;;26.40;33.93
6615;BME280;3343;42.896;23.912;2022-10-16T09:08:49;97493.25;;;26.41;32.61
6615;BME280;3343;42.896;23.912;2022-10-16T09:11:25;97502.19;;;26.47;34.03
6615;BME280;3343;42.896;23.912;2022-10-16T09:14:11;97510.09;;;26.06;33.13
6615;BME280;3343;42.896;23.912;2022-10-16T09:16:46;97502.03;;;26.11;33.23
6615;BME280;3343;42.896;23.912;2022-10-16T09:19:23;97503.22;;;26.36;33.44
6615;BME280;3343;42.896;23.912;2022-10-16T09:21:52;97502.22;;;26.62;33.21
6615;BME280;3343;42.896;23.912;2022-10-16T09:24:23;97491.16;;;26.69;32.10
6615;BME280;3343;42.896;23.912;2022-10-16T09:26:51;97500.59;;;24.65;32.54
6615;BME280;3343;42.896;23.912;2022-10-16T09:29:20;97504.69;;;25.64;32.87
6615;BME280;3343;42.896;23.912;2022-10-16T09:31:48;97499.66;;;25.73;31.63
6615;BME280;3343;42.896;23.912;2022-10-16T09:34:24;97496.63;;;26.94;31.22
6615;BME280;3343;42.896;23.912;2022-10-16T09:36:57;97497.09;;;26.60;30.63
6615;BME280;3343;42.896;23.912;2022-10-16T09:39:25;97482.53;;;26.87;31.86
6615;BME280;3343;42.896;23.912;2022-10-16T09:41:52;97495.31;;;27.32;31.15
6615;BME280;3343;42.896;23.912;2022-10-16T09:44:23;97492.88;;;27.25;30.47
6615;BME280;3343;42.896;23.912;2022-10-16T09:47:01;97484.13;;;26.52;30.26
6615;BME280;3343;42.896;23.912;2022-10-16T09:49:29;97492.88;;;27.10;30.73
6615;BME280;3343;42.896;23.912;2022-10-16T09:52:03;97480.19;;;27.26;30.85
6615;BME280;3343;42.896;23.912;2022-10-16T09:54:30;97477.47;;;27.01;29.85
6615;BME280;3343;42.896;23.912;2022-10-16T09:57:11;97477.13;;;26.77;29.88
6615;BME280;3343;42.896;23.912;2022-10-16T09:59:46;97480.56;;;25.84;30.30
6615;BME280;3343;42.896;23.912;2022-10-16T10:02:15;97478.72;;;26.57;30.60
6615;BME280;3343;42.896;23.912;2022-10-16T10:04:48;97474.19;;;27.49;30.34
6615;BME280;3343;42.896;23.912;2022-10-16T10:07:18;97468.28;;;27.27;29.45
6615;BME280;3343;42.896;23.912;2022-10-16T10:09:47;97467.19;;;27.38;28.21
6615;BME280;3343;42.896;23.912;2022-10-16T10:12:20;97464.22;;;27.40;28.75
6615;BME280;3343;42.896;23.912;2022-10-16T10:14:49;97453.97;;;27.11;28.52
6615;BME280;3343;42.896;23.912;2022-10-16T10:17:19;97451.41;;;27.96;27.31
6615;BME280;3343;42.896;23.912;2022-10-16T10:19:50;97459.88;;;27.44;27.76
6615;BME280;3343;42.896;23.912;2022-10-16T10:22:22;97441.97;;;26.41;28.48
6615;BME280;3343;42.896;23.912;2022-10-16T10:24:57;97454.50;;;25.53;29.33
6615;BME280;3343;42.896;23.912;2022-10-16T10:27:33;97454.09;;;26.33;27.95
6615;BME280;3343;42.896;23.912;2022-10-16T10:30:09;97449.34;;;27.37;27.75
6615;BME280;3343;42.896;23.912;2022-10-16T10:32:47;97452.84;;;27.43;26.74
6615;BME280;3343;42.896;23.912;2022-10-16T10:35:22;97446.53;;;27.93;26.84
6615;BME280;3343;42.896;23.912;2022-10-16T10:38:02;97443.78;;;28.08;25.26
6615;BME280;3343;42.896;23.912;2022-10-16T10:40:40;97454.16;;;28.45;26.59
6615;BME280;3343;42.896;23.912;2022-10-16T10:43:17;97432.97;;;28.58;26.21
6615;BME280;3343;42.896;23.912;2022-10-16T10:45:47;97452.19;;;28.56;25.73
6615;BME280;3343;42.896;23.912;2022-10-16T10:48:31;97444.84;;;28.67;24.95
6615;BME280;3343;42.896;23.912;2022-10-16T10:51:06;97447.66;;;26.40;26.36
6615;BME280;3343;42.896;23.912;2022-10-16T10:53:44;97444.31;;;25.65;27.62
6615;BME280;3343;42.896;23.912;2022-10-16T10:56:22;97443.38;;;25.91;28.40
6615;BME280;3343;42.896;23.912;2022-10-16T10:59:00;97437.84;;;26.23;27.55
6615;BME280;3343;42.896;23.912;2022-10-16T11:01:34;97433.91;;;26.56;26.30
6615;BME280;3343;42.896;23.912;2022-10-16T11:04:20;97431.56;;;27.11;25.56
6615;BME280;3343;42.896;23.912;2022-10-16T11:06:55;97425.72;;;26.26;25.55
6615;BME280;3343;42.896;23.912;2022-10-16T11:09:26;97431.53;;;25.97;25.83
6615;BME280;3343;42.896;23.912;2022-10-16T11:11:58;97435.06;;;24.82;26.39
6615;BME280;3343;42.896;23.912;2022-10-16T11:14:30;97429.34;;;25.84;26.62
6615;BME280;3343;42.896;23.912;2022-10-16T11:17:05;97423.50;;;26.02;25.87
6615;BME280;3343;42.896;23.912;2022-10-16T11:19:38;97425.66;;;26.06;26.27
6615;BME280;3343;42.896;23.912;2022-10-16T11:22:13;97420.28;;;26.11;26.28
6615;BME280;3343;42.896;23.912;2022-10-16T11:24:46;97420.88;;;26.28;26.19
6615;BME280;3343;42.896;23.912;2022-10-16T11:27:19;97419.31;;;26.57;25.28
6615;BME280;3343;42.896;23.912;2022-10-16T11:29:53;97423.69;;;27.24;25.49
6615;BME280;3343;42.896;23.912;2022-10-16T11:32:27;97420.19;;;26.93;24.98
6615;BME280;3343;42.896;23.912;2022-10-16T11:35:00;97421.50;;;26.60;24.34
6615;BME280;3343;42.896;23.912;2022-10-16T11:37:33;97426.50;;;26.11;25.15
6615;BME280;3343;42.896;23.912;2022-10-16T11:40:16;97416.63;;;26.57;24.79
6615;BME280;3343;42.896;23.912;2022-10-16T11:42:50;97426.13;;;27.26;24.73
6615;BME280;3343;42.896;23.912;2022-10-16T11:45:26;97422.63;;;26.90;25.25
6615;BME280;3343;42.896;23.912;2022-10-16T11:47:58;97414.25;;;27.07;25.15
6615;BME280;3343;42.896;23.912;2022-10-16T11:50:31;97417.50;;;27.14;24.61
6615;BME280;3343;42.896;23.912;2022-10-16T11:53:07;97414.94;;;26.31;24.86
6615;BME280;3343;42.896;23.912;2022-10-16T11:55:40;97416.78;;;25.58;25.88
6615;BME280;3343;42.896;23.912;2022-10-16T11:58:09;97415.59;;;24.69;26.56
6615;BME280;3343;42.896;23.912;2022-10-16T12:00:45;97423.00;;;25.16;26.09
6615;BME280;3343;42.896;23.912;2022-10-16T12:03:20;97423.78;;;25.59;26.12
6615;BME280;3343;42.896;23.912;2022-10-16T12:06:14;97425.91;;;25.52;25.42
6615;BME280;3343;42.896;23.912;2022-10-16T12:08:51;97425.38;;;25.55;25.86
6615;BME280;3343;42.896;23.912;2022-10-16T12:11:24;97414.97;;;25.68;25.77
6615;BME280;3343;42.896;23.912;2022-10-16T12:14:05;97423.88;;;25.69;25.76
6615;BME280;3343;42.896;23.912;2022-10-16T12:16:33;97422.75;;;25.18;26.02
6615;BME280;3343;42.896;23.912;2022-10-16T12:19:10;97420.34;;;26.31;25.35
6615;BME280;3343;42.896;23.912;2022-10-16T12:21:37;97423.78;;;26.11;25.76
6615;BME280;3343;42.896;23.912;2022-10-16T12:24:06;97422.41;;;26.03;26.26
6615;BME280;3343;42.896;23.912;2022-10-16T12:26:46;97423.78;;;26.11;25.58
6615;BME280;3343;42.896;23.912;2022-10-16T12:29:22;97423.63;;;26.43;25.71
6615;BME280;3343;42.896;23.912;2022-10-16T12:31:50;97428.94;;;26.13;25.51
6615;BME280;3343;42.896;23.912;2022-10-16T12:34:22;97430.63;;;26.39;25.16
6615;BME280;3343;42.896;23.912;2022-10-16T12:36:50;97429.50;;;25.20;25.72
6615;BME280;3343;42.896;23.912;2022-10-16T12:39:22;97429.91;;;25.91;25.53
6615;BME280;3343;42.896;23.912;2022-10-16T12:42:01;97425.88;;;25.94;26.37
6615;BME280;3343;42.896;23.912;2022-10-16T12:44:32;97432.72;;;25.17;26.34
6615;BME280;3343;42.896;23.912;2022-10-16T12:47:00;97433.34;;;25.34;26.74
6615;BME280;3343;42.896;23.912;2022-10-16T12:49:34;97436.75;;;25.62;25.73
6615;BME280;3343;42.896;23.912;2022-10-16T12:52:02;97428.28;;;25.43;25.60
6615;BME280;3343;42.896;23.912;2022-10-16T12:54:35;97430.47;;;25.98;25.00
6615;BME280;3343;42.896;23.912;2022-10-16T12:57:25;97423.06;;;26.36;24.92
6615;BME280;3343;42.896;23.912;2022-10-16T13:00:04;97425.44;;;26.17;24.47
6615;BME280;3343;42.896;23.912;2022-10-16T13:02:53;97427.75;;;27.22;24.13
6615;BME280;3343;42.896;23.912;2022-10-16T13:05:29;97428.81;;;26.90;23.85
6615;BME280;3343;42.896;23.912;2022-10-16T13:08:13;97436.84;;;26.45;24.45
6615;BME280;3343;42.896;23.912;2022-10-16T13:10:54;97436.38;;;26.88;24.24
6615;BME280;3343;42.896;23.912;2022-10-16T13:13:43;97443.13;;;27.47;24.09
6615;BME280;3343;42.896;23.912;2022-10-16T13:16:21;97435.59;;;27.08;24.44
6615;BME280;3343;42.896;23.912;2022-10-16T13:18:57;97430.72;;;25.97;25.34
6615;BME280;3343;42.896;23.912;2022-10-16T13:21:34;97432.25;;;26.40;26.06
6615;BME280;3343;42.896;23.912;2022-10-16T13:24:14;97421.75;;;26.54;25.13
6615;BME280;3343;42.896;23.912;2022-10-16T13:26:49;97432.44;;;25.61;26.37